createdAt,value
2022-09-22T00:01:20.165Z,11.03
2022-09-22T00:03:52.118Z,10.94
2022-09-22T00:06:19.334Z,10.97
2022-09-22T00:08:48.827Z,10.95
2022-09-22T00:11:17.341Z,10.91
2022-09-22T00:13:46.148Z,10.87
2022-09-22T00:16:14.200Z,10.88
2022-09-22T00:18:41.444Z,10.84
2022-09-22T00:21:10.214Z,10.80
2022-09-22T00:23:37.222Z,10.77
2022-09-22T00:26:05.188Z,10.74
2022-09-22T00:28:32.946Z,10.71
2022-09-22T00:31:03.743Z,10.69
2022-09-22T00:33:30.474Z,10.65
2022-09-22T00:35:58.862Z,10.63
2022-09-22T00:38:25.706Z,10.56
2022-09-22T00:40:52.549Z,10.54
2022-09-22T00:43:26.854Z,10.47
2022-09-22T00:45:59.520Z,10.44
2022-09-22T00:48:28.969Z,10.42
2022-09-22T00:50:56.420Z,10.39
2022-09-22T00:53:24.383Z,10.37
2022-09-22T00:55:56.069Z,10.36
2022-09-22T00:58:26.970Z,10.32
2022-09-22T01:00:54.289Z,10.29
2022-09-22T01:03:26.167Z,10.26
2022-09-22T01:05:57.735Z,10.24
2022-09-22T01:08:25.206Z,10.24
2022-09-22T01:10:53.369Z,10.24
2022-09-22T01:13:40.231Z,10.22
2022-09-22T01:16:25.861Z,10.20
2022-09-22T01:19:02.042Z,10.16
2022-09-22T01:21:33.757Z,10.14
2022-09-22T01:24:21.082Z,10.14
2022-09-22T01:26:53.720Z,10.15
2022-09-22T01:29:36.275Z,10.19
2022-09-22T01:32:10.454Z,10.19
2022-09-22T01:34:53.089Z,10.22
2022-09-22T01:37:19.779Z,10.22
2022-09-22T01:40:00.114Z,10.22
2022-09-22T01:42:37.243Z,10.23
2022-09-22T01:45:07.479Z,10.27
2022-09-22T01:47:43.372Z,10.28
2022-09-22T01:50:13.453Z,10.26
2022-09-22T01:52:41.221Z,10.29
2022-09-22T01:55:18.320Z,10.32
2022-09-22T01:58:05.633Z,10.34
2022-09-22T02:00:34.144Z,10.35
2022-09-22T02:03:05.245Z,10.41
2022-09-22T02:05:37.961Z,10.43
2022-09-22T02:08:10.037Z,10.50
2022-09-22T02:10:40.393Z,10.58
2022-09-22T02:13:07.750Z,10.66
2022-09-22T02:15:53.724Z,10.72
2022-09-22T02:18:24.959Z,10.82
2022-09-22T02:20:51.911Z,10.85
2022-09-22T02:23:18.594Z,10.95
2022-09-22T02:25:46.018Z,11.01
2022-09-22T02:28:16.023Z,11.05
2022-09-22T02:30:54.407Z,11.10
2022-09-22T02:33:37.545Z,11.10
2022-09-22T02:36:07.832Z,11.15
2022-09-22T02:38:52.618Z,11.10
2022-09-22T02:41:24.875Z,11.02
2022-09-22T02:43:55.356Z,10.95
2022-09-22T02:46:27.999Z,10.89
2022-09-22T02:48:56.719Z,10.84
2022-09-22T02:51:23.684Z,10.85
2022-09-22T02:53:50.442Z,10.82
2022-09-22T02:56:17.555Z,10.82
2022-09-22T02:58:44.684Z,10.82
2022-09-22T03:01:11.520Z,10.81
2022-09-22T03:03:38.566Z,10.79
2022-09-22T03:06:05.404Z,10.81
2022-09-22T03:08:33.402Z,10.80
2022-09-22T03:11:00.617Z,10.78
2022-09-22T03:13:27.485Z,10.76
2022-09-22T03:15:54.942Z,10.75
2022-09-22T03:18:22.069Z,10.66
2022-09-22T03:20:50.308Z,10.57
2022-09-22T03:23:19.019Z,10.53
2022-09-22T03:25:47.779Z,10.44
2022-09-22T03:28:15.034Z,10.45
2022-09-22T03:30:41.840Z,10.43
2022-09-22T03:33:08.968Z,10.37
2022-09-22T03:35:35.801Z,10.37
2022-09-22T03:38:02.562Z,10.35
2022-09-22T03:40:29.655Z,10.31
2022-09-22T03:42:56.522Z,10.25
2022-09-22T03:45:23.403Z,10.20
2022-09-22T03:47:50.440Z,10.16
2022-09-22T03:50:17.180Z,10.14
2022-09-22T03:52:45.044Z,10.10
2022-09-22T03:55:12.365Z,10.10
2022-09-22T03:57:39.894Z,10.07
2022-09-22T04:00:07.418Z,10.04
2022-09-22T04:02:39.230Z,10.03
2022-09-22T04:05:06.223Z,10.00
2022-09-22T04:07:32.915Z,9.97
2022-09-22T04:10:00.065Z,10.01
2022-09-22T04:12:26.811Z,9.97
2022-09-22T04:14:53.535Z,9.93
2022-09-22T04:17:20.835Z,9.88
2022-09-22T04:19:47.672Z,9.85
2022-09-22T04:22:14.704Z,9.83
2022-09-22T04:24:41.780Z,9.81
2022-09-22T04:27:19.535Z,9.83
2022-09-22T04:29:47.730Z,9.76
2022-09-22T04:32:16.415Z,9.64
2022-09-22T04:34:44.095Z,9.61
2022-09-22T04:37:11.871Z,9.61
2022-09-22T04:39:39.008Z,9.60
2022-09-22T04:42:06.018Z,9.63
2022-09-22T04:44:35.127Z,9.65
2022-09-22T04:47:02.412Z,9.66
2022-09-22T04:49:29.239Z,9.66
2022-09-22T04:51:56.237Z,9.69
2022-09-22T04:54:23.059Z,9.70
2022-09-22T04:56:49.869Z,9.73
2022-09-22T04:59:16.927Z,9.79
2022-09-22T05:01:43.949Z,9.88
2022-09-22T05:04:11.310Z,10.00
2022-09-22T05:06:38.502Z,10.07
2022-09-22T05:09:06.401Z,10.13
2022-09-22T05:11:34.332Z,10.15
2022-09-22T05:14:02.730Z,10.15
2022-09-22T05:16:32.310Z,10.16
2022-09-22T05:18:59.331Z,10.19
2022-09-22T05:21:26.943Z,10.25
2022-09-22T05:23:55.281Z,10.29
2022-09-22T05:27:34.815Z,10.29
2022-09-22T05:30:01.864Z,10.24
2022-09-22T05:32:30.725Z,10.31
2022-09-22T05:34:57.409Z,10.29
2022-09-22T05:37:24.546Z,10.28
2022-09-22T05:39:51.258Z,10.32
2022-09-22T05:42:18.148Z,10.34
2022-09-22T05:44:46.678Z,10.41
2022-09-22T05:47:13.448Z,10.44
2022-09-22T05:49:40.241Z,10.51
2022-09-22T05:52:07.561Z,10.54
2022-09-22T05:54:34.322Z,10.66
2022-09-22T05:57:01.129Z,10.84
2022-09-22T05:59:28.382Z,11.16
2022-09-22T06:01:59.495Z,11.32
2022-09-22T06:04:26.785Z,11.33
2022-09-22T06:06:53.949Z,11.36
2022-09-22T06:09:20.651Z,11.44
2022-09-22T06:11:47.481Z,11.63
2022-09-22T06:14:15.681Z,11.80
2022-09-22T06:16:43.322Z,11.89
2022-09-22T06:19:10.235Z,12.02
2022-09-22T06:21:37.375Z,12.09
2022-09-22T06:24:04.618Z,12.19
2022-09-22T06:26:31.455Z,12.32
2022-09-22T06:28:58.536Z,12.52
2022-09-22T06:31:26.452Z,12.69
2022-09-22T06:33:55.175Z,12.76
2022-09-22T06:36:42.510Z,12.74
2022-09-22T06:39:10.538Z,12.64
2022-09-22T06:41:38.382Z,12.60
2022-09-22T06:44:06.840Z,12.69
2022-09-22T06:46:34.264Z,12.77
2022-09-22T06:49:26.402Z,12.95
2022-09-22T06:51:53.162Z,12.95
2022-09-22T06:54:22.311Z,13.00
2022-09-22T06:56:50.773Z,13.12
2022-09-22T06:59:19.198Z,13.39
2022-09-22T07:01:46.713Z,13.73
2022-09-22T07:04:13.887Z,14.40
2022-09-22T07:06:41.166Z,14.99
2022-09-22T07:09:09.386Z,15.10
2022-09-22T07:11:40.101Z,15.28
2022-09-22T07:14:08.509Z,15.58
2022-09-22T07:16:36.567Z,15.77
2022-09-22T07:19:04.911Z,15.98
2022-09-22T07:21:36.706Z,16.13
2022-09-22T07:24:04.913Z,16.10
2022-09-22T07:26:33.525Z,15.86
2022-09-22T07:29:01.582Z,15.70
2022-09-22T07:31:30.525Z,15.37
2022-09-22T07:34:02.728Z,15.29
2022-09-22T07:36:34.990Z,15.18
2022-09-22T07:39:03.534Z,15.23
2022-09-22T07:41:31.605Z,15.24
2022-09-22T07:44:24.937Z,15.39
2022-09-22T07:46:52.048Z,15.34
2022-09-22T07:49:21.628Z,15.31
2022-09-22T07:51:49.617Z,15.41
2022-09-22T07:54:17.911Z,15.56
2022-09-22T07:56:45.910Z,15.70
2022-09-22T07:59:13.742Z,15.78
2022-09-22T08:01:44.917Z,15.77
2022-09-22T08:04:12.631Z,15.67
2022-09-22T08:06:39.341Z,15.46
2022-09-22T08:09:08.316Z,15.32
2022-09-22T08:11:35.029Z,15.17
2022-09-22T08:14:03.246Z,15.12
2022-09-22T08:16:32.441Z,15.07
2022-09-22T08:19:00.399Z,15.11
2022-09-22T08:21:28.147Z,15.13
2022-09-22T08:23:58.757Z,15.44
2022-09-22T08:26:25.693Z,16.02
2022-09-22T08:28:53.575Z,16.71
2022-09-22T08:31:23.039Z,17.29
2022-09-22T08:33:52.251Z,17.66
2022-09-22T08:36:19.164Z,17.70
2022-09-22T08:38:49.565Z,18.06
2022-09-22T08:41:19.745Z,17.84
2022-09-22T08:43:57.577Z,18.10
2022-09-22T08:46:32.360Z,18.26
2022-09-22T08:49:30.137Z,18.38
2022-09-22T08:52:00.628Z,18.58
2022-09-22T08:54:28.636Z,18.60
2022-09-22T08:56:57.468Z,18.54
2022-09-22T08:59:27.379Z,18.76
2022-09-22T09:02:13.570Z,19.32
2022-09-22T09:04:59.407Z,19.41
2022-09-22T09:07:58.074Z,19.59
2022-09-22T09:10:42.547Z,19.20
2022-09-22T09:13:15.057Z,19.28
2022-09-22T09:15:43.715Z,18.83
2022-09-22T09:18:14.931Z,18.88
2022-09-22T09:20:46.442Z,19.07
2022-09-22T09:23:18.200Z,19.21
2022-09-22T09:25:54.369Z,18.92
2022-09-22T09:28:27.878Z,18.29
2022-09-22T09:31:00.338Z,18.30
2022-09-22T09:33:33.882Z,18.57
2022-09-22T09:36:02.265Z,18.84
2022-09-22T09:38:35.488Z,18.96
2022-09-22T09:41:31.371Z,19.09
2022-09-22T09:44:02.370Z,19.15
2022-09-22T09:46:48.752Z,19.02
2022-09-22T09:49:17.616Z,18.90
2022-09-22T09:51:46.730Z,18.77
2022-09-22T09:54:17.011Z,18.81
2022-09-22T09:57:04.663Z,19.01
2022-09-22T09:59:50.243Z,19.21
2022-09-22T10:02:27.628Z,19.25
2022-09-22T10:05:02.607Z,19.31
2022-09-22T10:07:39.546Z,19.35
2022-09-22T10:10:23.585Z,19.22
2022-09-22T10:12:51.658Z,19.15
2022-09-22T10:15:26.449Z,18.87
2022-09-22T10:17:54.058Z,18.65
2022-09-22T10:20:22.607Z,18.32
2022-09-22T10:22:50.714Z,17.92
2022-09-22T10:25:25.521Z,17.75
2022-09-22T10:28:03.633Z,17.67
2022-09-22T10:30:37.667Z,17.58
2022-09-22T10:33:06.018Z,17.40
2022-09-22T10:35:33.889Z,17.32
2022-09-22T10:38:03.510Z,17.30
2022-09-22T10:40:31.458Z,17.39
2022-09-22T10:42:59.907Z,17.39
2022-09-22T10:45:40.502Z,17.53
2022-09-22T10:48:13.918Z,17.21
2022-09-22T10:50:41.592Z,17.20
2022-09-22T10:53:27.538Z,17.09
2022-09-22T10:56:00.126Z,17.11
2022-09-22T10:58:27.483Z,17.27
2022-09-22T11:01:00.906Z,17.01
2022-09-22T11:03:28.637Z,17.06
2022-09-22T11:06:14.108Z,17.28
2022-09-22T11:09:18.872Z,17.03
2022-09-22T11:12:12.659Z,17.21
2022-09-22T11:14:42.961Z,17.46
2022-09-22T11:17:20.949Z,17.55
2022-09-22T11:20:04.583Z,17.57
2022-09-22T11:22:51.186Z,17.33
2022-09-22T11:25:31.248Z,17.10
2022-09-22T11:28:04.426Z,17.10
2022-09-22T11:30:45.666Z,17.11
2022-09-22T11:33:18.669Z,17.09
2022-09-22T11:35:57.955Z,17.18
2022-09-22T11:38:31.154Z,17.24
2022-09-22T11:41:14.337Z,16.90
2022-09-22T11:43:59.879Z,16.92
2022-09-22T11:46:42.643Z,16.95
2022-09-22T11:49:24.439Z,16.94
2022-09-22T11:52:19.183Z,16.80
2022-09-22T11:54:47.076Z,16.76
2022-09-22T11:57:23.875Z,16.77
2022-09-22T11:59:57.402Z,16.75
2022-09-22T12:02:31.305Z,16.84
2022-09-22T12:05:02.672Z,16.96
2022-09-22T12:07:33.236Z,17.14
2022-09-22T12:10:02.975Z,17.38
2022-09-22T12:12:32.344Z,17.59
2022-09-22T12:15:02.715Z,17.90
2022-09-22T12:17:39.148Z,17.96
2022-09-22T12:20:15.630Z,17.88
2022-09-22T12:22:42.699Z,18.04
2022-09-22T12:25:20.762Z,18.04
2022-09-22T12:27:58.681Z,17.87
2022-09-22T12:30:25.497Z,17.49
2022-09-22T12:32:52.295Z,17.39
2022-09-22T12:35:25.278Z,17.15
2022-09-22T12:37:55.791Z,16.77
2022-09-22T12:40:29.926Z,16.52
2022-09-22T12:42:57.509Z,16.42
2022-09-22T12:45:38.035Z,16.47
2022-09-22T12:48:16.361Z,16.41
2022-09-22T12:50:44.729Z,16.34
2022-09-22T12:53:23.707Z,16.28
2022-09-22T12:55:51.827Z,16.29
2022-09-22T12:58:18.566Z,16.39
2022-09-22T13:00:45.740Z,16.23
2022-09-22T13:03:25.075Z,16.12
2022-09-22T13:05:53.032Z,16.06
2022-09-22T13:08:22.828Z,16.11
2022-09-22T13:10:51.174Z,15.92
2022-09-22T13:13:23.913Z,15.79
2022-09-22T13:15:54.893Z,15.84
2022-09-22T13:18:34.453Z,15.82
2022-09-22T13:21:23.272Z,15.81
2022-09-22T13:23:59.863Z,15.54
2022-09-22T13:26:32.627Z,15.44
2022-09-22T13:29:00.244Z,15.47
2022-09-22T13:31:27.694Z,15.42
2022-09-22T13:33:54.664Z,15.46
2022-09-22T13:36:23.854Z,15.54
2022-09-22T13:38:55.353Z,15.55
2022-09-22T13:41:24.250Z,15.64
2022-09-22T13:43:56.649Z,15.62
2022-09-22T13:46:29.898Z,15.64
2022-09-22T13:48:57.859Z,15.72
2022-09-22T13:51:26.022Z,15.75
2022-09-22T13:53:55.479Z,15.67
2022-09-22T13:56:26.422Z,15.68
2022-09-22T13:58:55.527Z,15.65
2022-09-22T14:01:24.923Z,15.66
2022-09-22T14:03:52.556Z,15.66
2022-09-22T14:06:22.249Z,15.67
2022-09-22T14:08:53.614Z,15.79
2022-09-22T14:11:24.746Z,15.74
2022-09-22T14:13:56.409Z,15.74
2022-09-22T14:16:44.031Z,15.71
2022-09-22T14:19:23.251Z,15.74
2022-09-22T14:21:52.052Z,15.78
2022-09-22T14:24:19.512Z,15.95
2022-09-22T14:26:50.954Z,15.93
2022-09-22T14:29:26.089Z,16.04
2022-09-22T14:31:56.566Z,15.95
2022-09-22T14:34:26.134Z,15.86
2022-09-22T14:36:54.655Z,15.79
2022-09-22T14:39:26.209Z,15.90
2022-09-22T14:41:59.176Z,15.93
2022-09-22T14:44:46.464Z,16.06
2022-09-22T14:47:27.076Z,15.94
2022-09-22T14:50:25.040Z,15.90
2022-09-22T14:52:53.197Z,15.92
2022-09-22T14:55:26.354Z,15.92
2022-09-22T14:57:54.933Z,15.94
2022-09-22T15:00:40.436Z,15.85
2022-09-22T15:03:16.076Z,15.80
2022-09-22T15:05:47.027Z,15.75
2022-09-22T15:08:18.806Z,15.81
2022-09-22T15:10:56.270Z,15.74
2022-09-22T15:13:29.755Z,15.80
2022-09-22T15:15:58.520Z,15.95
2022-09-22T15:18:30.349Z,16.02
2022-09-22T15:21:13.956Z,16.05
2022-09-22T15:23:42.647Z,15.97
2022-09-22T15:26:14.719Z,15.90
2022-09-22T15:28:42.151Z,15.82
2022-09-22T15:31:11.231Z,15.85
2022-09-22T15:33:39.750Z,15.71
2022-09-22T15:36:13.018Z,15.70
2022-09-22T15:38:40.193Z,15.71
2022-09-22T15:41:10.990Z,15.57
2022-09-22T15:43:39.495Z,15.55
2022-09-22T15:46:26.722Z,15.55
2022-09-22T15:49:10.049Z,15.46
2022-09-22T15:51:37.597Z,15.53
2022-09-22T15:54:13.172Z,15.54
2022-09-22T15:56:42.863Z,15.39
2022-09-22T15:59:19.043Z,15.38
2022-09-22T16:02:13.970Z,15.32
2022-09-22T16:04:41.768Z,15.27
2022-09-22T16:07:11.126Z,15.22
2022-09-22T16:09:39.475Z,15.17
2022-09-22T16:12:12.385Z,15.12
2022-09-22T16:14:42.377Z,15.08
2022-09-22T16:17:11.717Z,15.03
2022-09-22T16:19:39.888Z,14.97
2022-09-22T16:22:07.035Z,14.93
2022-09-22T16:24:34.185Z,14.85
2022-09-22T16:27:07.415Z,14.79
2022-09-22T16:29:37.570Z,14.70
2022-09-22T16:32:07.883Z,14.66
2022-09-22T16:34:37.621Z,14.61
2022-09-22T16:37:05.281Z,14.56
2022-09-22T16:39:32.374Z,14.49
2022-09-22T16:41:59.405Z,14.43
2022-09-22T16:44:30.087Z,14.35
2022-09-22T16:46:58.767Z,14.32
2022-09-22T16:49:25.805Z,14.27
2022-09-22T16:51:54.404Z,14.20
2022-09-22T16:54:24.755Z,14.16
2022-09-22T16:56:53.095Z,14.12
2022-09-22T16:59:21.326Z,14.09
2022-09-22T17:01:50.135Z,14.04
2022-09-22T17:04:20.080Z,13.99
2022-09-22T17:06:50.603Z,13.92
2022-09-22T17:09:17.538Z,13.87
2022-09-22T17:11:45.498Z,13.82
2022-09-22T17:14:15.531Z,13.79
2022-09-22T17:16:43.911Z,13.74
2022-09-22T17:19:19.447Z,13.67
2022-09-22T17:21:47.826Z,13.63
2022-09-22T17:24:16.725Z,13.58
2022-09-22T17:26:48.146Z,13.54
2022-09-22T17:29:16.147Z,13.50
2022-09-22T17:31:43.854Z,13.47
2022-09-22T17:34:12.085Z,13.44
2022-09-22T17:36:39.941Z,13.42
2022-09-22T17:39:07.737Z,13.37
2022-09-22T17:41:34.755Z,13.37
2022-09-22T17:44:03.348Z,13.34
2022-09-22T17:46:32.043Z,13.30
2022-09-22T17:49:19.883Z,13.24
2022-09-22T17:52:08.197Z,13.20
2022-09-22T17:54:57.418Z,13.17
2022-09-22T17:57:31.209Z,13.13
2022-09-22T17:59:58.767Z,13.12
2022-09-22T18:02:28.688Z,13.11
2022-09-22T18:04:55.791Z,13.09
2022-09-22T18:07:23.642Z,13.06
2022-09-22T18:09:51.392Z,13.05
2022-09-22T18:12:23.080Z,13.05
2022-09-22T18:14:53.279Z,13.01
2022-09-22T18:17:21.558Z,12.96
2022-09-22T18:19:49.658Z,12.89
2022-09-22T18:22:21.116Z,12.85
2022-09-22T18:24:49.666Z,12.80
2022-09-22T18:27:19.882Z,12.76
2022-09-22T18:29:50.114Z,12.74
2022-09-22T18:32:20.149Z,12.74
2022-09-22T18:34:47.690Z,12.72
2022-09-22T18:37:16.299Z,12.70
2022-09-22T18:39:46.676Z,12.69
2022-09-22T18:42:13.734Z,12.64
2022-09-22T18:44:41.942Z,12.51
2022-09-22T18:47:13.152Z,12.56
2022-09-22T18:49:41.510Z,12.50
2022-09-22T18:52:08.883Z,12.46
2022-09-22T18:54:39.419Z,12.38
2022-09-22T18:57:07.883Z,12.32
2022-09-22T18:59:39.038Z,12.27
2022-09-22T19:02:10.661Z,12.22
2022-09-22T19:05:04.101Z,12.19
2022-09-22T19:08:21.010Z,12.19
2022-09-22T19:11:03.699Z,12.17
2022-09-22T19:14:09.896Z,12.16
2022-09-22T19:17:23.899Z,12.13
2022-09-22T19:21:45.420Z,11.97
2022-09-22T19:33:33.167Z,11.91
2022-09-22T19:40:02.094Z,11.86
2022-09-22T20:01:33.611Z,11.60
2022-09-22T20:04:01.055Z,11.56
2022-09-22T20:06:27.946Z,11.52
2022-09-22T20:09:02.901Z,11.50
2022-09-22T20:11:34.175Z,11.49
2022-09-22T20:14:19.946Z,11.48
2022-09-22T20:16:48.037Z,11.47
2022-09-22T20:19:14.988Z,11.47
2022-09-22T20:21:45.611Z,11.50
2022-09-22T20:24:17.104Z,11.48
2022-09-22T20:26:45.108Z,11.46
2022-09-22T20:29:13.248Z,11.43
2022-09-22T20:31:40.581Z,11.43
2022-09-22T20:34:07.655Z,11.43
2022-09-22T20:36:37.052Z,11.40
2022-09-22T20:39:05.714Z,11.37
2022-09-22T20:41:32.711Z,11.36
2022-09-22T20:43:59.659Z,11.36
2022-09-22T20:46:26.974Z,11.32
2022-09-22T20:48:56.788Z,11.26
2022-09-22T20:51:23.686Z,11.21
2022-09-22T20:53:50.858Z,11.17
2022-09-22T20:56:18.007Z,11.14
2022-09-22T20:58:45.619Z,11.11
2022-09-22T21:01:14.165Z,11.07
2022-09-22T21:03:41.261Z,11.04
2022-09-22T21:06:09.227Z,11.03
2022-09-22T21:08:59.194Z,11.02
2022-09-22T21:14:18.764Z,11.00
2022-09-22T21:16:46.141Z,11.00
2022-09-22T21:19:18.134Z,10.99
2022-09-22T21:21:46.131Z,10.97
2022-09-22T21:24:12.943Z,10.91
2022-09-22T21:26:39.726Z,10.87
2022-09-22T21:29:07.050Z,10.84
2022-09-22T21:31:34.918Z,10.76
2022-09-22T21:34:17.282Z,10.73
2022-09-22T21:36:44.040Z,10.71
2022-09-22T21:39:12.120Z,10.69
2022-09-22T21:41:38.869Z,10.66
2022-09-22T21:44:05.965Z,10.61
2022-09-22T21:46:34.857Z,10.65
2022-09-22T21:49:02.718Z,10.63
2022-09-22T21:51:30.247Z,10.60
2022-09-22T21:53:56.975Z,10.60
2022-09-22T21:56:24.963Z,10.58
2022-09-22T21:58:52.919Z,10.57
2022-09-22T22:01:38.910Z,10.57
2022-09-22T22:04:24.281Z,10.56
2022-09-22T22:07:12.009Z,10.57
2022-09-22T22:09:38.744Z,10.57
2022-09-22T22:12:25.457Z,10.55
2022-09-22T22:15:10.743Z,10.55
2022-09-22T22:17:56.354Z,10.55
2022-09-22T22:20:41.794Z,10.55
2022-09-22T22:23:29.015Z,10.51
2022-09-22T22:26:16.324Z,10.44
2022-09-22T22:29:02.003Z,10.43
2022-09-22T22:31:49.200Z,10.40
2022-09-22T22:34:34.310Z,10.38
2022-09-22T22:37:19.952Z,10.39
2022-09-22T22:40:05.570Z,10.37
2022-09-22T22:42:51.365Z,10.35
2022-09-22T22:45:36.370Z,10.34
2022-09-22T22:48:21.702Z,10.34
2022-09-22T22:51:31.860Z,10.35
2022-09-22T22:54:17.412Z,10.32
2022-09-22T22:57:02.614Z,10.29
2022-09-22T22:59:48.714Z,10.29
2022-09-22T23:02:33.872Z,10.27
2022-09-22T23:05:21.514Z,10.26
2022-09-22T23:08:10.469Z,10.22
2022-09-22T23:11:00.764Z,10.19
2022-09-22T23:13:50.892Z,10.17
2022-09-22T23:16:37.354Z,10.15
2022-09-22T23:19:22.530Z,10.14
2022-09-22T23:22:07.715Z,10.12
2022-09-22T23:24:53.977Z,10.06
2022-09-22T23:27:21.066Z,10.03
2022-09-22T23:29:47.750Z,10.01
2022-09-22T23:32:15.150Z,10.01
2022-09-22T23:34:41.878Z,9.97
2022-09-22T23:37:09.258Z,9.97
2022-09-22T23:39:36.021Z,9.97
2022-09-22T23:42:02.613Z,9.95
2022-09-22T23:44:29.826Z,9.92
2022-09-22T23:46:56.417Z,9.90
2022-09-22T23:49:23.064Z,9.88
2022-09-22T23:51:49.656Z,9.86
2022-09-22T23:54:16.434Z,9.86
2022-09-22T23:56:43.201Z,9.86
2022-09-22T23:59:09.897Z,9.84
